Terminal Aerodrome Forecast
Issued by NWS Cleveland, OH

Home | Current Version | Previous Version | Graphics & Text | Print | Product List | Glossary On
Versions: 1 2 3 4 5 6 7 8 9 10 11 12 13 14 15 16 17 18 19 20 21 22 23 24
000
FTUS41 KCLE 031700
TAFMFD
TAF
KMFD 031733Z 0318/0418 14009KT P6SM OVC030
      TEMPO 0318/0319 5SM -FZRA BR OVC022
     FM031900 14008KT 4SM -RAPL BR BKN015 OVC030
     FM032000 18011KT 5SM -SHRA BR BKN018 OVC022 WS020/22040KT
     FM032300 22012G20KT 4SM -SHRA BR BKN008 OVC025 WS020/22040KT
     FM040600 24015G25KT 4SM -SHSN BKN005 OVC015=

USA.gov is the U.S. government's official web portal to all federal, state and local government web resources and services.